Artemis — SWZE — position and weather

sailwx.info

Track history (hours):
 
Tides and Currents Weather Stations Pressure Air Temp Water Temp Dewpoint Dewpoint Depression Visibility Wind Speed Wind Dir Waves Ship Positions

Artemis

Last reported at 2014-Dec-20 12:34 UTC. Time now 2014-Dec-20 12:55 UTC.
Position N 37°05' E 025°08'.

Length 89 m; draft 3.1 m.

Type: Passenger vessel. MMSI: 237026300.

Date/timePositionNaut miles runAvg speedWind from/ knotsBaromVisibWave heightAir tempDewpointWater temp
2014-Dec-20 12:34N 37°05' E 025°08'1110.7
2014-Dec-20 11:34N 37°07' E 025°22'8 8.0
2014-Dec-20 10:33N 36°59' E 025°18'1515.0
2014-Dec-20 09:33N 36°45' E 025°15'6 6.4
2014-Dec-20 08:33N 36°40' E 025°09'10 9.5
2014-Dec-20 07:33N 36°37' E 024°57'1515.1
2014-Dec-20 06:33N 36°44' E 024°40'1010.3
2014-Dec-20 05:33N 36°47' E 024°28'4 3.5
2014-Dec-20 04:33N 36°43' E 024°27'0 0.0
2014-Dec-20 03:33N 36°43' E 024°27'0 0.0
2014-Dec-20 02:33N 36°43' E 024°27'0 0.0
2014-Dec-20 01:33N 36°43' E 024°27'0 0.0
2014-Dec-20 00:33N 36°43' E 024°27'0 0.0
2014-Dec-19 23:33N 36°43' E 024°27'0 0.0
2014-Dec-19 22:33N 36°43' E 024°27'0 0.0
2014-Dec-19 21:33N 36°43' E 024°27'0 0.0
2014-Dec-19 20:33N 36°43' E 024°27'4 3.5
2014-Dec-19 19:33N 36°47' E 024°28'1110.7
2014-Dec-19 18:33N 36°43' E 024°41'1414.4
2014-Dec-19 17:33N 36°38' E 024°57'9 9.4
2014-Dec-19 16:34N 36°40' E 025°09'6 6.4
2014-Dec-19 15:33N 36°45' E 025°14'1515.0
2014-Dec-19 14:33N 36°60' E 025°18'9 8.6
2014-Dec-19 13:33N 37°08' E 025°20'9 8.9
2014-Dec-19 12:30N 37°05' E 025°09'1314.2
2014-Dec-19 11:33N 37°17' E 025°02'10 9.8
2014-Dec-19 10:33N 37°26' E 024°56'9 8.9
2014-Dec-19 09:33N 37°31' E 024°47'1514.5
2014-Dec-19 08:33N 37°29' E 024°29'8 7.6
2014-Dec-19 07:33N 37°24' E 024°22'18 8.6
2014-Dec-19 05:29N 37°38' E 024°08'3 0.2
2014-Dec-18 15:32N 37°39' E 024°11'16 7.3
2014-Dec-18 13:17N 37°25' E 024°22'1112.7
2014-Dec-18 12:26N 37°30' E 024°34'18 9.5
2014-Dec-18 10:30N 37°26' E 024°56'1010.4
2014-Dec-18 09:32N 37°18' E 024°50'1514.8
2014-Dec-18 08:33N 37°09' E 024°35'8 7.9
2014-Dec-18 07:31N 37°01' E 024°37'9 9.5
2014-Dec-18 06:33N 36°52' E 024°37'9 9.0
2014-Dec-18 05:34N 36°47' E 024°28'3 3.5
2014-Dec-18 04:33N 36°43' E 024°27'2 2.4
2014-Dec-18 03:33N 36°43' E 024°24'0 0.0
2014-Dec-18 02:33N 36°43' E 024°24'0 0.0
2014-Dec-18 01:33N 36°43' E 024°24'0 0.0
2014-Dec-18 00:34N 36°43' E 024°24'0 0.0
2014-Dec-17 23:33N 36°43' E 024°24'0 0.0
2014-Dec-17 22:33N 36°43' E 024°24'0 0.0
2014-Dec-17 21:33N 36°43' E 024°24'0 0.0
2014-Dec-17 20:33N 36°43' E 024°24'0 0.0
2014-Dec-17 19:33N 36°43' E 024°24'2 2.2
2014-Dec-17 18:34N 36°43' E 024°26'5 4.9
2014-Dec-17 17:33N 36°46' E 024°31'10 9.9
2014-Dec-17 16:33N 36°55' E 024°38'8 8.1
2014-Dec-17 15:33N 37°03' E 024°35'7 6.6
2014-Dec-17 14:33N 37°09' E 024°37'1414.3
2014-Dec-17 13:33N 37°18' E 024°51'10 9.2
2014-Dec-17 12:30N 37°27' E 024°57'0 0.0
2014-Dec-17 11:32N 37°27' E 024°57'2 2.0
2014-Dec-17 10:33N 37°27' E 024°59'8 8.3
2014-Dec-17 09:33N 37°33' E 025°06'3 0.7
2014-Dec-17 05:32N 37°32' E 025°09'1111.3
2014-Dec-17 04:32N 37°27' E 024°57'0 0.0
2014-Dec-17 03:33N 37°27' E 024°57'0 0.0
2014-Dec-17 02:33N 37°27' E 024°57'0 0.0
2014-Dec-17 01:31N 37°27' E 024°57'0 0.0
2014-Dec-17 00:29N 37°27' E 024°57'0 0.0
2014-Dec-16 23:26N 37°27' E 024°57'0 0.0
2014-Dec-16 22:11N 37°27' E 024°57'0 0.0
2014-Dec-16 21:31N 37°27' E 024°57'0 0.0
2014-Dec-16 20:27N 37°27' E 024°57'1 0.6
2014-Dec-16 19:10N 37°26' E 024°57'1215.1
2014-Dec-16 18:21N 37°15' E 025°03'1012.3
2014-Dec-16 17:30N 37°05' E 025°09'1313.8
2014-Dec-16 16:34N 37°07' E 024°53'1514.9
2014-Dec-16 15:34N 37°07' E 024°34'9 8.0
2014-Dec-16 14:23N 36°59' E 024°40'911.2
2014-Dec-16 13:33N 36°51' E 024°37'1110.6
2014-Dec-16 12:34N 36°47' E 024°25'3 3.4
2014-Dec-16 11:33N 36°47' E 024°29'1110.5
2014-Dec-16 10:33N 36°54' E 024°38'1010.2
2014-Dec-16 09:33N 37°04' E 024°35'5 5.0
2014-Dec-16 08:34N 37°07' E 024°40'1514.8
2014-Dec-16 07:34N 37°06' E 024°58'6 6.4
2014-Dec-16 06:34N 37°08' E 025°06'1414.4
2014-Dec-16 05:33N 37°22' E 024°60'5 5.1
2014-Dec-16 04:33N 37°27' E 024°57'0 0.0
2014-Dec-16 01:04N 37°27' E 024°57'0 0.0
2014-Dec-15 23:31N 37°27' E 024°57'0 0.0
2014-Dec-15 22:33N 37°27' E 024°57'0 0.0
2014-Dec-15 21:33N 37°27' E 024°57'0 0.0
2014-Dec-15 20:32N 37°27' E 024°57'9 8.8
2014-Dec-15 19:33N 37°31' E 024°47'1514.6
2014-Dec-15 18:33N 37°29' E 024°29'7 7.4
2014-Dec-15 17:33N 37°24' E 024°22'18 8.7
2014-Dec-15 15:29N 37°38' E 024°07'9 1.4
2014-Dec-15 08:32N 37°32' E 024°16'9 9.2
2014-Dec-15 07:33N 37°24' E 024°22'1212.2
2014-Dec-15 06:33N 37°30' E 024°36'1614.5
2014-Dec-15 05:26N 37°30' E 024°57'3 3.7
2014-Dec-15 04:32N 37°26' E 024°56'0 0.0
2014-Dec-15 03:29N 37°26' E 024°56'0 0.0
2014-Dec-15 02:32N 37°26' E 024°56'0 0.0
2014-Dec-15 01:30N 37°26' E 024°56'0 0.0
2014-Dec-15 00:32N 37°26' E 024°56'0 0.0
2014-Dec-14 23:33N 37°26' E 024°56'5 4.5
2014-Dec-14 22:31N 37°22' E 024°60'1515.0
2014-Dec-14 21:34N 37°09' E 025°06'6 5.6
2014-Dec-14 20:34N 37°07' E 024°59'1514.7
2014-Dec-14 19:34N 37°08' E 024°41'6 6.3
2014-Dec-14 18:34N 37°05' E 024°34'9 9.2
2014-Dec-14 17:34N 36°56' E 024°38'1111.2
2014-Dec-14 16:34N 36°46' E 024°33'5 5.2
2014-Dec-14 15:34N 36°43' E 024°27'0 0.0
2014-Dec-14 14:34N 36°43' E 024°27'0 0.0
2014-Dec-14 13:34N 36°43' E 024°27'0 0.0
2014-Dec-14 12:33N 36°43' E 024°27'4 4.2
2014-Dec-14 11:33N 36°46' E 024°30'1010.3
2014-Dec-14 10:33N 36°54' E 024°38'1110.5
2014-Dec-14 09:34N 37°05' E 024°35'6 5.5
2014-Dec-14 08:33N 37°07' E 024°41'1414.4
2014-Dec-14 07:34N 37°06' E 024°58'6 6.3
2014-Dec-14 06:34N 37°08' E 025°06'1514.7
2014-Dec-14 05:33N 37°21' E 025°00'6 5.7
2014-Dec-14 04:33N 37°27' E 024°57'0 0.0
2014-Dec-14 03:33N 37°27' E 024°57'0 0.0
2014-Dec-14 02:32N 37°27' E 024°57'0 0.0
2014-Dec-14 01:30N 37°27' E 024°57'0 0.0
2014-Dec-14 00:32N 37°27' E 024°57'0 0.0
2014-Dec-13 23:22N 37°27' E 024°57'0 0.0
2014-Dec-13 22:32N 37°27' E 024°57'0 0.0
2014-Dec-13 21:33N 37°27' E 024°57'0 0.0
2014-Dec-13 20:18N 37°27' E 024°57'0 0.0
2014-Dec-13 19:33N 37°27' E 024°57'0 0.0
2014-Dec-13 18:33N 37°27' E 024°57'0 0.0
2014-Dec-13 17:31N 37°27' E 024°57'0 0.0
2014-Dec-13 16:32N 37°27' E 024°57'0 0.0
2014-Dec-13 15:28N 37°27' E 024°57'9 9.5
2014-Dec-13 14:33N 37°19' E 025°01'1514.2
2014-Dec-13 13:31N 37°05' E 025°08'9 9.2
2014-Dec-13 12:33N 37°10' E 025°18'8 8.2
2014-Dec-13 11:33N 37°02' E 025°18'2211.1
2014-Dec-13 09:34N 36°41' E 025°10'1111.0
2014-Dec-13 08:34N 36°37' E 024°57'1212.3
2014-Dec-13 07:34N 36°47' E 024°49'1111.3
2014-Dec-13 06:33N 36°47' E 024°35'7 7.0
2014-Dec-13 05:34N 36°48' E 024°27'5 4.8
2014-Dec-13 04:34N 36°43' E 024°27'0 0.0
2014-Dec-13 03:34N 36°43' E 024°27'0 0.0
2014-Dec-13 02:34N 36°43' E 024°27'0 0.0
2014-Dec-13 01:34N 36°43' E 024°27'0 0.0
2014-Dec-13 00:34N 36°43' E 024°27'0 0.0
2014-Dec-12 23:34N 36°43' E 024°27'0 0.0
2014-Dec-12 22:33N 36°43' E 024°27'0 0.0
2014-Dec-12 21:33N 36°43' E 024°27'0 0.2
2014-Dec-12 20:34N 36°43' E 024°26'6 5.8
2014-Dec-12 19:34N 36°46' E 024°33'1010.4
2014-Dec-12 18:33N 36°42' E 024°45'1110.8
2014-Dec-12 17:33N 36°37' E 024°57'1111.0
2014-Dec-12 16:34N 36°40' E 025°10'9 8.8
2014-Dec-12 15:33N 36°48' E 025°15'1514.8
2014-Dec-12 14:33N 37°03' E 025°18'7 7.1
2014-Dec-12 13:34N 37°10' E 025°17'9 8.4
2014-Dec-12 12:33N 37°07' E 025°07'1414.6
2014-Dec-12 11:33N 37°20' E 025°00'10 9.4
2014-Dec-12 10:33N 37°29' E 024°57'1414.2
2014-Dec-12 09:33N 37°31' E 024°39'1512.9
2014-Dec-12 08:21N 37°24' E 024°22'6 7.3
2014-Dec-12 07:33N 37°30' E 024°18'12 5.7
2014-Dec-12 05:24N 37°38' E 024°08'5 0.3
2014-Dec-11 15:31N 37°39' E 024°13'17 8.2
2014-Dec-11 13:30N 37°24' E 024°22'1111.9
2014-Dec-11 12:33N 37°30' E 024°34'1814.2
2014-Dec-11 11:19N 37°30' E 024°57'3 4.3
2014-Dec-11 10:32N 37°26' E 024°57'1111.3
2014-Dec-11 09:33N 37°17' E 024°48'1515.0
2014-Dec-11 08:33N 37°08' E 024°34'10 9.1
2014-Dec-11 07:29N 36°60' E 024°40'1010.4
2014-Dec-11 06:34N 36°50' E 024°37'8 8.4
2014-Dec-11 05:33N 36°47' E 024°27'4 3.5
2014-Dec-11 04:33N 36°43' E 024°27'0 0.0
2014-Dec-11 03:33N 36°43' E 024°27'0 0.0
2014-Dec-11 02:33N 36°43' E 024°27'0 0.0
2014-Dec-11 01:33N 36°43' E 024°27'0 0.0
2014-Dec-11 00:34N 36°43' E 024°27'0 0.0
2014-Dec-10 23:33N 36°43' E 024°27'0 0.0
2014-Dec-10 22:33N 36°43' E 024°27'0 0.0
2014-Dec-10 21:33N 36°43' E 024°27'0 0.0
2014-Dec-10 20:33N 36°43' E 024°27'0 0.0
2014-Dec-10 19:33N 36°43' E 024°27'0 0.0
2014-Dec-10 18:33N 36°43' E 024°27'4 3.6
2014-Dec-10 17:33N 36°47' E 024°25'1010.3
2014-Dec-10 16:33N 36°49' E 024°37'1110.9
2014-Dec-10 15:32N 37°01' E 024°38'1010.0
2014-Dec-10 14:33N 37°09' E 024°31'7 6.8
2014-Dec-10 13:33N 37°11' E 024°39'  
Track history (hours):
 
Tides and Currents Weather Stations Pressure Air Temp Water Temp Dewpoint Dewpoint Depression Visibility Wind Speed Wind Dir Waves Ship Positions

Artemis

Last reported at 2014-Dec-20 12:34 UTC. Time now 2014-Dec-20 12:55 UTC.
Position N 37°05' E 025°08'.

Length 89 m; draft 3.1 m.

Type: Passenger vessel. MMSI: 237026300.

Date/timePositionNaut miles runAvg speedWind from/ knotsBaromVisibWave heightAir tempDewpointWater temp
2014-Dec-20 12:34N 37°05' E 025°08'1110.7
2014-Dec-20 11:34N 37°07' E 025°22'8 8.0
2014-Dec-20 10:33N 36°59' E 025°18'1515.0
2014-Dec-20 09:33N 36°45' E 025°15'6 6.4
2014-Dec-20 08:33N 36°40' E 025°09'10 9.5
2014-Dec-20 07:33N 36°37' E 024°57'1515.1
2014-Dec-20 06:33N 36°44' E 024°40'1010.3
2014-Dec-20 05:33N 36°47' E 024°28'4 3.5
2014-Dec-20 04:33N 36°43' E 024°27'0 0.0
2014-Dec-20 03:33N 36°43' E 024°27'0 0.0
2014-Dec-20 02:33N 36°43' E 024°27'0 0.0
2014-Dec-20 01:33N 36°43' E 024°27'0 0.0
2014-Dec-20 00:33N 36°43' E 024°27'0 0.0
2014-Dec-19 23:33N 36°43' E 024°27'0 0.0
2014-Dec-19 22:33N 36°43' E 024°27'0 0.0
2014-Dec-19 21:33N 36°43' E 024°27'0 0.0
2014-Dec-19 20:33N 36°43' E 024°27'4 3.5
2014-Dec-19 19:33N 36°47' E 024°28'1110.7
2014-Dec-19 18:33N 36°43' E 024°41'1414.4
2014-Dec-19 17:33N 36°38' E 024°57'9 9.4
2014-Dec-19 16:34N 36°40' E 025°09'6 6.4
2014-Dec-19 15:33N 36°45' E 025°14'1515.0
2014-Dec-19 14:33N 36°60' E 025°18'9 8.6
2014-Dec-19 13:33N 37°08' E 025°20'9 8.9
2014-Dec-19 12:30N 37°05' E 025°09'1314.2
2014-Dec-19 11:33N 37°17' E 025°02'10 9.8
2014-Dec-19 10:33N 37°26' E 024°56'9 8.9
2014-Dec-19 09:33N 37°31' E 024°47'1514.5
2014-Dec-19 08:33N 37°29' E 024°29'8 7.6
2014-Dec-19 07:33N 37°24' E 024°22'18 8.6
2014-Dec-19 05:29N 37°38' E 024°08'3 0.2
2014-Dec-18 15:32N 37°39' E 024°11'16 7.3
2014-Dec-18 13:17N 37°25' E 024°22'1112.7
2014-Dec-18 12:26N 37°30' E 024°34'18 9.5
2014-Dec-18 10:30N 37°26' E 024°56'1010.4
2014-Dec-18 09:32N 37°18' E 024°50'1514.8
2014-Dec-18 08:33N 37°09' E 024°35'8 7.9
2014-Dec-18 07:31N 37°01' E 024°37'9 9.5
2014-Dec-18 06:33N 36°52' E 024°37'9 9.0
2014-Dec-18 05:34N 36°47' E 024°28'3 3.5
2014-Dec-18 04:33N 36°43' E 024°27'2 2.4
2014-Dec-18 03:33N 36°43' E 024°24'0 0.0
2014-Dec-18 02:33N 36°43' E 024°24'0 0.0
2014-Dec-18 01:33N 36°43' E 024°24'0 0.0
2014-Dec-18 00:34N 36°43' E 024°24'0 0.0
2014-Dec-17 23:33N 36°43' E 024°24'0 0.0
2014-Dec-17 22:33N 36°43' E 024°24'0 0.0
2014-Dec-17 21:33N 36°43' E 024°24'0 0.0
2014-Dec-17 20:33N 36°43' E 024°24'0 0.0
2014-Dec-17 19:33N 36°43' E 024°24'2 2.2
2014-Dec-17 18:34N 36°43' E 024°26'5 4.9
2014-Dec-17 17:33N 36°46' E 024°31'10 9.9
2014-Dec-17 16:33N 36°55' E 024°38'8 8.1
2014-Dec-17 15:33N 37°03' E 024°35'7 6.6
2014-Dec-17 14:33N 37°09' E 024°37'1414.3
2014-Dec-17 13:33N 37°18' E 024°51'10 9.2
2014-Dec-17 12:30N 37°27' E 024°57'0 0.0
2014-Dec-17 11:32N 37°27' E 024°57'2 2.0
2014-Dec-17 10:33N 37°27' E 024°59'8 8.3
2014-Dec-17 09:33N 37°33' E 025°06'3 0.7
2014-Dec-17 05:32N 37°32' E 025°09'1111.3
2014-Dec-17 04:32N 37°27' E 024°57'0 0.0
2014-Dec-17 03:33N 37°27' E 024°57'0 0.0
2014-Dec-17 02:33N 37°27' E 024°57'0 0.0
2014-Dec-17 01:31N 37°27' E 024°57'0 0.0
2014-Dec-17 00:29N 37°27' E 024°57'0 0.0
2014-Dec-16 23:26N 37°27' E 024°57'0 0.0
2014-Dec-16 22:11N 37°27' E 024°57'0 0.0
2014-Dec-16 21:31N 37°27' E 024°57'0 0.0
2014-Dec-16 20:27N 37°27' E 024°57'1 0.6
2014-Dec-16 19:10N 37°26' E 024°57'1215.1
2014-Dec-16 18:21N 37°15' E 025°03'1012.3
2014-Dec-16 17:30N 37°05' E 025°09'1313.8
2014-Dec-16 16:34N 37°07' E 024°53'1514.9
2014-Dec-16 15:34N 37°07' E 024°34'9 8.0
2014-Dec-16 14:23N 36°59' E 024°40'911.2
2014-Dec-16 13:33N 36°51' E 024°37'1110.6
2014-Dec-16 12:34N 36°47' E 024°25'3 3.4
2014-Dec-16 11:33N 36°47' E 024°29'1110.5
2014-Dec-16 10:33N 36°54' E 024°38'1010.2
2014-Dec-16 09:33N 37°04' E 024°35'5 5.0
2014-Dec-16 08:34N 37°07' E 024°40'1514.8
2014-Dec-16 07:34N 37°06' E 024°58'6 6.4
2014-Dec-16 06:34N 37°08' E 025°06'1414.4
2014-Dec-16 05:33N 37°22' E 024°60'5 5.1
2014-Dec-16 04:33N 37°27' E 024°57'0 0.0
2014-Dec-16 01:04N 37°27' E 024°57'0 0.0
2014-Dec-15 23:31N 37°27' E 024°57'0 0.0
2014-Dec-15 22:33N 37°27' E 024°57'0 0.0
2014-Dec-15 21:33N 37°27' E 024°57'0 0.0
2014-Dec-15 20:32N 37°27' E 024°57'9 8.8
2014-Dec-15 19:33N 37°31' E 024°47'1514.6
2014-Dec-15 18:33N 37°29' E 024°29'7 7.4
2014-Dec-15 17:33N 37°24' E 024°22'18 8.7
2014-Dec-15 15:29N 37°38' E 024°07'9 1.4
2014-Dec-15 08:32N 37°32' E 024°16'9 9.2
2014-Dec-15 07:33N 37°24' E 024°22'1212.2
2014-Dec-15 06:33N 37°30' E 024°36'1614.5
2014-Dec-15 05:26N 37°30' E 024°57'3 3.7
2014-Dec-15 04:32N 37°26' E 024°56'0 0.0
2014-Dec-15 03:29N 37°26' E 024°56'0 0.0
2014-Dec-15 02:32N 37°26' E 024°56'0 0.0
2014-Dec-15 01:30N 37°26' E 024°56'0 0.0
2014-Dec-15 00:32N 37°26' E 024°56'0 0.0
2014-Dec-14 23:33N 37°26' E 024°56'5 4.5
2014-Dec-14 22:31N 37°22' E 024°60'1515.0
2014-Dec-14 21:34N 37°09' E 025°06'6 5.6
2014-Dec-14 20:34N 37°07' E 024°59'1514.7
2014-Dec-14 19:34N 37°08' E 024°41'6 6.3
2014-Dec-14 18:34N 37°05' E 024°34'9 9.2
2014-Dec-14 17:34N 36°56' E 024°38'1111.2
2014-Dec-14 16:34N 36°46' E 024°33'5 5.2
2014-Dec-14 15:34N 36°43' E 024°27'0 0.0
2014-Dec-14 14:34N 36°43' E 024°27'0 0.0
2014-Dec-14 13:34N 36°43' E 024°27'0 0.0
2014-Dec-14 12:33N 36°43' E 024°27'4 4.2
2014-Dec-14 11:33N 36°46' E 024°30'1010.3
2014-Dec-14 10:33N 36°54' E 024°38'1110.5
2014-Dec-14 09:34N 37°05' E 024°35'6 5.5
2014-Dec-14 08:33N 37°07' E 024°41'1414.4
2014-Dec-14 07:34N 37°06' E 024°58'6 6.3
2014-Dec-14 06:34N 37°08' E 025°06'1514.7
2014-Dec-14 05:33N 37°21' E 025°00'6 5.7
2014-Dec-14 04:33N 37°27' E 024°57'0 0.0
2014-Dec-14 03:33N 37°27' E 024°57'0 0.0
2014-Dec-14 02:32N 37°27' E 024°57'0 0.0
2014-Dec-14 01:30N 37°27' E 024°57'0 0.0
2014-Dec-14 00:32N 37°27' E 024°57'0 0.0
2014-Dec-13 23:22N 37°27' E 024°57'0 0.0
2014-Dec-13 22:32N 37°27' E 024°57'0 0.0
2014-Dec-13 21:33N 37°27' E 024°57'0 0.0
2014-Dec-13 20:18N 37°27' E 024°57'0 0.0
2014-Dec-13 19:33N 37°27' E 024°57'0 0.0
2014-Dec-13 18:33N 37°27' E 024°57'0 0.0
2014-Dec-13 17:31N 37°27' E 024°57'0 0.0
2014-Dec-13 16:32N 37°27' E 024°57'0 0.0
2014-Dec-13 15:28N 37°27' E 024°57'9 9.5
2014-Dec-13 14:33N 37°19' E 025°01'1514.2
2014-Dec-13 13:31N 37°05' E 025°08'9 9.2
2014-Dec-13 12:33N 37°10' E 025°18'8 8.2
2014-Dec-13 11:33N 37°02' E 025°18'2211.1
2014-Dec-13 09:34N 36°41' E 025°10'1111.0
2014-Dec-13 08:34N 36°37' E 024°57'1212.3
2014-Dec-13 07:34N 36°47' E 024°49'1111.3
2014-Dec-13 06:33N 36°47' E 024°35'7 7.0
2014-Dec-13 05:34N 36°48' E 024°27'5 4.8
2014-Dec-13 04:34N 36°43' E 024°27'0 0.0
2014-Dec-13 03:34N 36°43' E 024°27'0 0.0
2014-Dec-13 02:34N 36°43' E 024°27'0 0.0
2014-Dec-13 01:34N 36°43' E 024°27'0 0.0
2014-Dec-13 00:34N 36°43' E 024°27'0 0.0
2014-Dec-12 23:34N 36°43' E 024°27'0 0.0
2014-Dec-12 22:33N 36°43' E 024°27'0 0.0
2014-Dec-12 21:33N 36°43' E 024°27'0 0.2
2014-Dec-12 20:34N 36°43' E 024°26'6 5.8
2014-Dec-12 19:34N 36°46' E 024°33'1010.4
2014-Dec-12 18:33N 36°42' E 024°45'1110.8
2014-Dec-12 17:33N 36°37' E 024°57'1111.0
2014-Dec-12 16:34N 36°40' E 025°10'9 8.8
2014-Dec-12 15:33N 36°48' E 025°15'1514.8
2014-Dec-12 14:33N 37°03' E 025°18'7 7.1
2014-Dec-12 13:34N 37°10' E 025°17'9 8.4
2014-Dec-12 12:33N 37°07' E 025°07'1414.6
2014-Dec-12 11:33N 37°20' E 025°00'10 9.4
2014-Dec-12 10:33N 37°29' E 024°57'1414.2
2014-Dec-12 09:33N 37°31' E 024°39'1512.9
2014-Dec-12 08:21N 37°24' E 024°22'6 7.3
2014-Dec-12 07:33N 37°30' E 024°18'12 5.7
2014-Dec-12 05:24N 37°38' E 024°08'5 0.3
2014-Dec-11 15:31N 37°39' E 024°13'17 8.2
2014-Dec-11 13:30N 37°24' E 024°22'1111.9
2014-Dec-11 12:33N 37°30' E 024°34'1814.2
2014-Dec-11 11:19N 37°30' E 024°57'3 4.3
2014-Dec-11 10:32N 37°26' E 024°57'1111.3
2014-Dec-11 09:33N 37°17' E 024°48'1515.0
2014-Dec-11 08:33N 37°08' E 024°34'10 9.1
2014-Dec-11 07:29N 36°60' E 024°40'1010.4
2014-Dec-11 06:34N 36°50' E 024°37'8 8.4
2014-Dec-11 05:33N 36°47' E 024°27'4 3.5
2014-Dec-11 04:33N 36°43' E 024°27'0 0.0
2014-Dec-11 03:33N 36°43' E 024°27'0 0.0
2014-Dec-11 02:33N 36°43' E 024°27'0 0.0
2014-Dec-11 01:33N 36°43' E 024°27'0 0.0
2014-Dec-11 00:34N 36°43' E 024°27'0 0.0
2014-Dec-10 23:33N 36°43' E 024°27'0 0.0
2014-Dec-10 22:33N 36°43' E 024°27'0 0.0
2014-Dec-10 21:33N 36°43' E 024°27'0 0.0
2014-Dec-10 20:33N 36°43' E 024°27'0 0.0
2014-Dec-10 19:33N 36°43' E 024°27'0 0.0
2014-Dec-10 18:33N 36°43' E 024°27'4 3.6
2014-Dec-10 17:33N 36°47' E 024°25'1010.3
2014-Dec-10 16:33N 36°49' E 024°37'1110.9
2014-Dec-10 15:32N 37°01' E 024°38'1010.0
2014-Dec-10 14:33N 37°09' E 024°31'7 6.8
2014-Dec-10 13:33N 37°11' E 024°39'  

Dump ship's entire track history